sensor_id;sensor_type;location;lat;lon;timestamp;temperature;humidity
16829;DHT22;8531;48.078;11.968;2023-03-01T00:01:21;1.40;99.90
16829;DHT22;8531;48.078;11.968;2023-03-01T00:03:47;1.30;99.90
16829;DHT22;8531;48.078;11.968;2023-03-01T00:06:13;1.30;99.90
16829;DHT22;8531;48.078;11.968;2023-03-01T00:08:39;1.30;99.90
16829;DHT22;8531;48.078;11.968;2023-03-01T00:11:18;1.30;99.90
16829;DHT22;8531;48.078;11.968;2023-03-01T00:13:45;1.30;99.90
16829;DHT22;8531;48.078;11.968;2023-03-01T00:16:15;1.30;99.90
16829;DHT22;8531;48.078;11.968;2023-03-01T00:18:41;1.30;99.90
16829;DHT22;8531;48.078;11.968;2023-03-01T00:21:07;1.30;99.90
16829;DHT22;8531;48.078;11.968;2023-03-01T00:23:36;1.20;99.90
16829;DHT22;8531;48.078;11.968;2023-03-01T00:26:05;1.20;99.90
16829;DHT22;8531;48.078;11.968;2023-03-01T00:28:32;1.30;99.90
16829;DHT22;8531;48.078;11.968;2023-03-01T00:31:04;1.30;99.90
16829;DHT22;8531;48.078;11.968;2023-03-01T00:33:30;1.20;99.90
16829;DHT22;8531;48.078;11.968;2023-03-01T00:35:58;1.20;99.90
16829;DHT22;8531;48.078;11.968;2023-03-01T00:38:24;1.20;99.90
16829;DHT22;8531;48.078;11.968;2023-03-01T00:40:49;1.30;99.90
16829;DHT22;8531;48.078;11.968;2023-03-01T00:43:15;1.20;99.90
16829;DHT22;8531;48.078;11.968;2023-03-01T00:45:41;1.20;99.90
16829;DHT22;8531;48.078;11.968;2023-03-01T00:48:06;1.20;99.90
16829;DHT22;8531;48.078;11.968;2023-03-01T00:50:32;1.10;99.90
16829;DHT22;8531;48.078;11.968;2023-03-01T00:52:58;1.20;99.90
16829;DHT22;8531;48.078;11.968;2023-03-01T00:55:24;1.10;99.90
16829;DHT22;8531;48.078;11.968;2023-03-01T00:57:50;1.20;99.90
16829;DHT22;8531;48.078;11.968;2023-03-01T01:00:16;1.20;99.90
16829;DHT22;8531;48.078;11.968;2023-03-01T01:02:42;1.20;99.90
16829;DHT22;8531;48.078;11.968;2023-03-01T01:05:08;1.20;99.90
16829;DHT22;8531;48.078;11.968;2023-03-01T01:07:34;1.10;99.90
16829;DHT22;8531;48.078;11.968;2023-03-01T01:10:00;1.10;99.90
16829;DHT22;8531;48.078;11.968;2023-03-01T01:12:25;1.10;99.90
16829;DHT22;8531;48.078;11.968;2023-03-01T01:14:51;1.10;99.90
16829;DHT22;8531;48.078;11.968;2023-03-01T01:17:16;1.10;99.90
16829;DHT22;8531;48.078;11.968;2023-03-01T01:19:42;1.10;99.90
16829;DHT22;8531;48.078;11.968;2023-03-01T01:22:08;1.10;99.90
16829;DHT22;8531;48.078;11.968;2023-03-01T01:24:35;1.10;99.90
16829;DHT22;8531;48.078;11.968;2023-03-01T01:27:00;1.10;99.90
16829;DHT22;8531;48.078;11.968;2023-03-01T01:29:26;1.10;99.90
16829;DHT22;8531;48.078;11.968;2023-03-01T01:31:52;1.10;99.90
16829;DHT22;8531;48.078;11.968;2023-03-01T01:34:20;1.00;99.90
16829;DHT22;8531;48.078;11.968;2023-03-01T01:36:52;1.00;99.90
16829;DHT22;8531;48.078;11.968;2023-03-01T01:39:20;1.00;99.90
16829;DHT22;8531;48.078;11.968;2023-03-01T01:41:46;1.10;99.90
16829;DHT22;8531;48.078;11.968;2023-03-01T01:44:22;1.00;99.90
16829;DHT22;8531;48.078;11.968;2023-03-01T01:49:36;1.10;99.90
16829;DHT22;8531;48.078;11.968;2023-03-01T01:52:10;1.00;99.90
16829;DHT22;8531;48.078;11.968;2023-03-01T01:57:16;1.10;99.90
16829;DHT22;8531;48.078;11.968;2023-03-01T01:59:45;1.00;99.90
16829;DHT22;8531;48.078;11.968;2023-03-01T02:02:13;1.10;99.90
16829;DHT22;8531;48.078;11.968;2023-03-01T02:04:39;1.00;99.90
16829;DHT22;8531;48.078;11.968;2023-03-01T02:07:19;1.00;99.90
16829;DHT22;8531;48.078;11.968;2023-03-01T02:09:47;0.90;99.90
16829;DHT22;8531;48.078;11.968;2023-03-01T02:12:18;0.90;99.90
16829;DHT22;8531;48.078;11.968;2023-03-01T02:14:45;0.80;99.90
16829;DHT22;8531;48.078;11.968;2023-03-01T02:17:12;0.80;99.90
16829;DHT22;8531;48.078;11.968;2023-03-01T02:20:09;0.90;99.90
16829;DHT22;8531;48.078;11.968;2023-03-01T02:22:39;0.80;99.90
16829;DHT22;8531;48.078;11.968;2023-03-01T02:30:31;0.80;99.90
16829;DHT22;8531;48.078;11.968;2023-03-01T02:32:59;0.90;99.90
16829;DHT22;8531;48.078;11.968;2023-03-01T02:35:33;0.90;99.90
16829;DHT22;8531;48.078;11.968;2023-03-01T02:38:01;0.80;99.90
16829;DHT22;8531;48.078;11.968;2023-03-01T02:40:29;0.80;99.90
16829;DHT22;8531;48.078;11.968;2023-03-01T02:42:58;0.90;99.90
16829;DHT22;8531;48.078;11.968;2023-03-01T02:45:25;0.80;99.90
16829;DHT22;8531;48.078;11.968;2023-03-01T02:47:54;0.70;99.90
16829;DHT22;8531;48.078;11.968;2023-03-01T02:50:25;0.70;99.90
16829;DHT22;8531;48.078;11.968;2023-03-01T02:53:15;0.70;99.90
16829;DHT22;8531;48.078;11.968;2023-03-01T02:55:42;0.70;99.90
16829;DHT22;8531;48.078;11.968;2023-03-01T02:58:08;0.70;99.90
16829;DHT22;8531;48.078;11.968;2023-03-01T03:00:37;0.70;99.90
16829;DHT22;8531;48.078;11.968;2023-03-01T03:03:13;0.70;99.90
16829;DHT22;8531;48.078;11.968;2023-03-01T03:05:40;0.80;99.90
16829;DHT22;8531;48.078;11.968;2023-03-01T03:08:06;0.80;99.90
16829;DHT22;8531;48.078;11.968;2023-03-01T03:10:36;0.70;99.90
16829;DHT22;8531;48.078;11.968;2023-03-01T03:13:05;0.70;99.90
16829;DHT22;8531;48.078;11.968;2023-03-01T03:15:32;0.60;99.90
16829;DHT22;8531;48.078;11.968;2023-03-01T03:18:01;0.60;99.90
16829;DHT22;8531;48.078;11.968;2023-03-01T03:20:28;0.60;99.90
16829;DHT22;8531;48.078;11.968;2023-03-01T03:22:57;0.60;99.90
16829;DHT22;8531;48.078;11.968;2023-03-01T03:25:24;0.60;99.90
16829;DHT22;8531;48.078;11.968;2023-03-01T03:27:51;0.50;99.90
16829;DHT22;8531;48.078;11.968;2023-03-01T03:30:24;0.50;99.90
16829;DHT22;8531;48.078;11.968;2023-03-01T03:32:50;0.50;99.90
16829;DHT22;8531;48.078;11.968;2023-03-01T03:35:22;0.40;99.90
16829;DHT22;8531;48.078;11.968;2023-03-01T03:37:48;0.40;99.90
16829;DHT22;8531;48.078;11.968;2023-03-01T03:40:36;0.40;99.90
16829;DHT22;8531;48.078;11.968;2023-03-01T03:43:04;0.40;99.90
16829;DHT22;8531;48.078;11.968;2023-03-01T03:45:30;0.40;99.90
16829;DHT22;8531;48.078;11.968;2023-03-01T03:47:59;0.40;99.90
16829;DHT22;8531;48.078;11.968;2023-03-01T03:50:24;0.40;99.90
16829;DHT22;8531;48.078;11.968;2023-03-01T03:52:50;0.40;99.90
16829;DHT22;8531;48.078;11.968;2023-03-01T03:55:16;0.40;99.90
16829;DHT22;8531;48.078;11.968;2023-03-01T03:57:47;0.30;99.90
16829;DHT22;8531;48.078;11.968;2023-03-01T04:00:19;0.30;99.90
16829;DHT22;8531;48.078;11.968;2023-03-01T04:02:46;0.30;99.90
16829;DHT22;8531;48.078;11.968;2023-03-01T04:05:14;0.30;99.90
16829;DHT22;8531;48.078;11.968;2023-03-01T04:07:41;0.20;99.90
16829;DHT22;8531;48.078;11.968;2023-03-01T04:10:13;0.20;99.90
16829;DHT22;8531;48.078;11.968;2023-03-01T04:12:39;0.20;99.90
16829;DHT22;8531;48.078;11.968;2023-03-01T04:15:06;0.10;99.90
16829;DHT22;8531;48.078;11.968;2023-03-01T04:17:42;0.10;99.90
16829;DHT22;8531;48.078;11.968;2023-03-01T04:20:10;0.10;99.90
16829;DHT22;8531;48.078;11.968;2023-03-01T04:22:37;0.00;99.90
16829;DHT22;8531;48.078;11.968;2023-03-01T04:25:03;0.10;99.90
16829;DHT22;8531;48.078;11.968;2023-03-01T04:27:34;0.00;99.90
16829;DHT22;8531;48.078;11.968;2023-03-01T04:30:01;0.10;99.90
16829;DHT22;8531;48.078;11.968;2023-03-01T04:32:26;0.00;99.90
16829;DHT22;8531;48.078;11.968;2023-03-01T04:34:52;0.00;99.90
16829;DHT22;8531;48.078;11.968;2023-03-01T04:37:18;0.00;99.90
16829;DHT22;8531;48.078;11.968;2023-03-01T04:39:43;0.00;99.90
16829;DHT22;8531;48.078;11.968;2023-03-01T04:42:13;-0.10;99.90
16829;DHT22;8531;48.078;11.968;2023-03-01T04:44:39;-0.10;99.90
16829;DHT22;8531;48.078;11.968;2023-03-01T04:47:04;-0.20;99.90
16829;DHT22;8531;48.078;11.968;2023-03-01T04:49:30;-0.20;99.90
16829;DHT22;8531;48.078;11.968;2023-03-01T04:51:56;-0.20;99.90
16829;DHT22;8531;48.078;11.968;2023-03-01T04:54:31;-0.20;99.90
16829;DHT22;8531;48.078;11.968;2023-03-01T04:56:57;-0.20;99.90
16829;DHT22;8531;48.078;11.968;2023-03-01T04:59:24;-0.20;99.90
16829;DHT22;8531;48.078;11.968;2023-03-01T05:01:51;-0.30;99.90
16829;DHT22;8531;48.078;11.968;2023-03-01T05:04:17;-0.20;99.90
16829;DHT22;8531;48.078;11.968;2023-03-01T05:06:43;-0.20;99.90
16829;DHT22;8531;48.078;11.968;2023-03-01T05:09:09;-0.30;99.90
16829;DHT22;8531;48.078;11.968;2023-03-01T05:11:34;-0.30;99.90
16829;DHT22;8531;48.078;11.968;2023-03-01T05:14:02;-0.30;99.90
16829;DHT22;8531;48.078;11.968;2023-03-01T05:16:28;-0.30;99.90
16829;DHT22;8531;48.078;11.968;2023-03-01T05:18:56;-0.30;99.90
16829;DHT22;8531;48.078;11.968;2023-03-01T05:21:22;-0.40;99.90
16829;DHT22;8531;48.078;11.968;2023-03-01T05:23:48;-0.30;99.90
16829;DHT22;8531;48.078;11.968;2023-03-01T05:26:15;-0.30;99.90
16829;DHT22;8531;48.078;11.968;2023-03-01T05:28:42;-0.40;99.90
16829;DHT22;8531;48.078;11.968;2023-03-01T05:31:08;-0.40;99.90
16829;DHT22;8531;48.078;11.968;2023-03-01T05:33:38;-0.40;99.90
16829;DHT22;8531;48.078;11.968;2023-03-01T05:36:06;-0.30;99.90
16829;DHT22;8531;48.078;11.968;2023-03-01T05:38:33;-0.30;99.90
16829;DHT22;8531;48.078;11.968;2023-03-01T05:40:58;-0.30;99.90
16829;DHT22;8531;48.078;11.968;2023-03-01T05:43:24;-0.40;99.90
16829;DHT22;8531;48.078;11.968;2023-03-01T05:45:50;-0.30;99.90
16829;DHT22;8531;48.078;11.968;2023-03-01T05:48:15;-0.30;99.90
16829;DHT22;8531;48.078;11.968;2023-03-01T05:50:43;-0.40;99.90
16829;DHT22;8531;48.078;11.968;2023-03-01T05:53:11;-0.30;99.90
16829;DHT22;8531;48.078;11.968;2023-03-01T05:55:38;-0.50;99.90
16829;DHT22;8531;48.078;11.968;2023-03-01T05:58:07;-0.50;99.90
16829;DHT22;8531;48.078;11.968;2023-03-01T06:00:33;-0.50;99.90
16829;DHT22;8531;48.078;11.968;2023-03-01T06:02:59;-0.40;99.90
16829;DHT22;8531;48.078;11.968;2023-03-01T06:05:25;-0.40;99.90
16829;DHT22;8531;48.078;11.968;2023-03-01T06:07:51;-0.50;99.90
16829;DHT22;8531;48.078;11.968;2023-03-01T06:10:20;-0.50;99.90
16829;DHT22;8531;48.078;11.968;2023-03-01T06:12:46;-0.40;99.90
16829;DHT22;8531;48.078;11.968;2023-03-01T06:15:14;-0.50;99.90
16829;DHT22;8531;48.078;11.968;2023-03-01T06:17:42;-0.40;99.90
16829;DHT22;8531;48.078;11.968;2023-03-01T06:20:17;-0.50;99.90
16829;DHT22;8531;48.078;11.968;2023-03-01T06:22:43;-0.40;99.90
16829;DHT22;8531;48.078;11.968;2023-03-01T06:25:10;-0.40;99.90
16829;DHT22;8531;48.078;11.968;2023-03-01T06:27:38;-0.40;99.90
16829;DHT22;8531;48.078;11.968;2023-03-01T06:30:04;-0.40;99.90
16829;DHT22;8531;48.078;11.968;2023-03-01T06:32:30;-0.40;99.90
16829;DHT22;8531;48.078;11.968;2023-03-01T06:34:57;-0.30;99.90
16829;DHT22;8531;48.078;11.968;2023-03-01T06:37:25;-0.40;99.90
16829;DHT22;8531;48.078;11.968;2023-03-01T06:39:50;-0.40;99.90
16829;DHT22;8531;48.078;11.968;2023-03-01T06:42:16;-0.30;99.90
16829;DHT22;8531;48.078;11.968;2023-03-01T06:44:42;-0.30;99.90
16829;DHT22;8531;48.078;11.968;2023-03-01T06:47:09;-0.30;99.90
16829;DHT22;8531;48.078;11.968;2023-03-01T06:49:34;-0.30;99.90
16829;DHT22;8531;48.078;11.968;2023-03-01T06:52:00;-0.30;99.90
16829;DHT22;8531;48.078;11.968;2023-03-01T06:54:26;-0.30;99.90
16829;DHT22;8531;48.078;11.968;2023-03-01T06:56:51;-0.30;99.90
16829;DHT22;8531;48.078;11.968;2023-03-01T06:59:17;-0.20;99.90
16829;DHT22;8531;48.078;11.968;2023-03-01T07:01:43;-0.10;99.90
16829;DHT22;8531;48.078;11.968;2023-03-01T07:04:10;-0.10;99.90
16829;DHT22;8531;48.078;11.968;2023-03-01T07:06:36;-0.10;99.90
16829;DHT22;8531;48.078;11.968;2023-03-01T07:09:01;-0.10;99.90
16829;DHT22;8531;48.078;11.968;2023-03-01T07:11:27;-0.10;99.90
16829;DHT22;8531;48.078;11.968;2023-03-01T07:13:53;-0.30;99.90
16829;DHT22;8531;48.078;11.968;2023-03-01T07:16:18;-0.30;99.90
16829;DHT22;8531;48.078;11.968;2023-03-01T07:18:46;-0.20;99.90
16829;DHT22;8531;48.078;11.968;2023-03-01T07:21:13;-0.10;99.90
16829;DHT22;8531;48.078;11.968;2023-03-01T07:23:39;-0.20;99.90
16829;DHT22;8531;48.078;11.968;2023-03-01T07:26:05;-0.10;99.90
16829;DHT22;8531;48.078;11.968;2023-03-01T07:28:31;-0.10;99.90
16829;DHT22;8531;48.078;11.968;2023-03-01T07:31:02;-0.20;99.90
16829;DHT22;8531;48.078;11.968;2023-03-01T07:33:28;-0.10;99.90
16829;DHT22;8531;48.078;11.968;2023-03-01T07:35:58;-0.10;99.90
16829;DHT22;8531;48.078;11.968;2023-03-01T07:38:24;-0.10;99.90
16829;DHT22;8531;48.078;11.968;2023-03-01T07:40:49;-0.10;99.90
16829;DHT22;8531;48.078;11.968;2023-03-01T07:43:15;-0.10;99.90
16829;DHT22;8531;48.078;11.968;2023-03-01T07:45:41;0.00;99.90
16829;DHT22;8531;48.078;11.968;2023-03-01T07:48:06;0.00;99.90
16829;DHT22;8531;48.078;11.968;2023-03-01T07:50:32;0.00;99.90
16829;DHT22;8531;48.078;11.968;2023-03-01T07:52:58;-0.10;99.90
16829;DHT22;8531;48.078;11.968;2023-03-01T07:55:24;-0.20;99.90
16829;DHT22;8531;48.078;11.968;2023-03-01T07:57:50;-0.10;99.90
16829;DHT22;8531;48.078;11.968;2023-03-01T08:00:16;-0.10;99.90
16829;DHT22;8531;48.078;11.968;2023-03-01T08:02:41;0.10;99.90
16829;DHT22;8531;48.078;11.968;2023-03-01T08:05:08;0.30;99.90
16829;DHT22;8531;48.078;11.968;2023-03-01T08:07:35;0.30;99.90
16829;DHT22;8531;48.078;11.968;2023-03-01T08:10:01;0.30;99.90
16829;DHT22;8531;48.078;11.968;2023-03-01T08:12:26;0.40;99.90
16829;DHT22;8531;48.078;11.968;2023-03-01T08:14:53;0.40;99.90
16829;DHT22;8531;48.078;11.968;2023-03-01T08:17:19;0.30;99.90
16829;DHT22;8531;48.078;11.968;2023-03-01T08:19:45;0.30;99.90
16829;DHT22;8531;48.078;11.968;2023-03-01T08:22:11;0.40;99.90
16829;DHT22;8531;48.078;11.968;2023-03-01T08:24:37;0.40;99.90
16829;DHT22;8531;48.078;11.968;2023-03-01T08:27:03;0.40;99.90
16829;DHT22;8531;48.078;11.968;2023-03-01T08:29:31;0.50;99.90
16829;DHT22;8531;48.078;11.968;2023-03-01T08:31:56;0.40;99.90
16829;DHT22;8531;48.078;11.968;2023-03-01T08:34:22;0.40;99.90
16829;DHT22;8531;48.078;11.968;2023-03-01T08:36:48;0.40;99.90
16829;DHT22;8531;48.078;11.968;2023-03-01T08:39:16;0.30;99.90
16829;DHT22;8531;48.078;11.968;2023-03-01T08:41:42;0.30;99.90
16829;DHT22;8531;48.078;11.968;2023-03-01T08:44:10;0.30;99.90
16829;DHT22;8531;48.078;11.968;2023-03-01T08:46:39;0.40;99.90
16829;DHT22;8531;48.078;11.968;2023-03-01T08:49:14;0.70;99.90
16829;DHT22;8531;48.078;11.968;2023-03-01T08:51:40;0.80;99.90
16829;DHT22;8531;48.078;11.968;2023-03-01T08:54:11;0.80;99.90
16829;DHT22;8531;48.078;11.968;2023-03-01T08:56:37;0.70;99.90
16829;DHT22;8531;48.078;11.968;2023-03-01T08:59:03;0.80;99.90
16829;DHT22;8531;48.078;11.968;2023-03-01T09:01:29;0.90;99.90
16829;DHT22;8531;48.078;11.968;2023-03-01T09:03:55;1.00;99.90
16829;DHT22;8531;48.078;11.968;2023-03-01T09:06:21;1.20;99.90
16829;DHT22;8531;48.078;11.968;2023-03-01T09:08:48;1.20;99.90
16829;DHT22;8531;48.078;11.968;2023-03-01T09:11:17;1.10;99.90
16829;DHT22;8531;48.078;11.968;2023-03-01T09:13:45;1.00;99.90
16829;DHT22;8531;48.078;11.968;2023-03-01T09:16:12;1.00;99.90
16829;DHT22;8531;48.078;11.968;2023-03-01T09:18:38;1.00;99.90
16829;DHT22;8531;48.078;11.968;2023-03-01T09:23:36;1.40;99.90
16829;DHT22;8531;48.078;11.968;2023-03-01T09:26:17;1.60;99.90
16829;DHT22;8531;48.078;11.968;2023-03-01T09:28:47;1.70;99.90
16829;DHT22;8531;48.078;11.968;2023-03-01T09:31:14;1.80;99.90
16829;DHT22;8531;48.078;11.968;2023-03-01T09:33:41;2.00;99.90
16829;DHT22;8531;48.078;11.968;2023-03-01T09:36:12;2.00;99.90
16829;DHT22;8531;48.078;11.968;2023-03-01T09:38:38;2.10;99.90
16829;DHT22;8531;48.078;11.968;2023-03-01T09:41:17;1.90;99.90
16829;DHT22;8531;48.078;11.968;2023-03-01T09:46:13;2.00;99.90
16829;DHT22;8531;48.078;11.968;2023-03-01T09:48:55;1.90;99.90
16829;DHT22;8531;48.078;11.968;2023-03-01T09:51:30;1.80;99.90
16829;DHT22;8531;48.078;11.968;2023-03-01T09:53:56;2.00;99.90
16829;DHT22;8531;48.078;11.968;2023-03-01T09:56:36;2.10;99.90
16829;DHT22;8531;48.078;11.968;2023-03-01T10:01:55;2.20;99.90
16829;DHT22;8531;48.078;11.968;2023-03-01T10:04:46;2.30;99.90
16829;DHT22;8531;48.078;11.968;2023-03-01T10:10:37;2.30;99.90
16829;DHT22;8531;48.078;11.968;2023-03-01T10:13:31;2.50;99.90
16829;DHT22;8531;48.078;11.968;2023-03-01T10:18:56;2.60;99.90
16829;DHT22;8531;48.078;11.968;2023-03-01T10:21:23;2.70;99.90
16829;DHT22;8531;48.078;11.968;2023-03-01T10:23:50;2.80;99.90
16829;DHT22;8531;48.078;11.968;2023-03-01T10:26:44;3.00;99.90
16829;DHT22;8531;48.078;11.968;2023-03-01T10:29:13;3.10;99.90
16829;DHT22;8531;48.078;11.968;2023-03-01T10:34:16;3.10;99.90
16829;DHT22;8531;48.078;11.968;2023-03-01T10:36:44;3.30;99.90
16829;DHT22;8531;48.078;11.968;2023-03-01T10:41:55;3.20;99.90
16829;DHT22;8531;48.078;11.968;2023-03-01T10:44:45;3.30;99.90
16829;DHT22;8531;48.078;11.968;2023-03-01T10:49:58;3.40;99.90
16829;DHT22;8531;48.078;11.968;2023-03-01T10:52:31;3.40;99.90
16829;DHT22;8531;48.078;11.968;2023-03-01T10:55:03;3.50;99.90
16829;DHT22;8531;48.078;11.968;2023-03-01T10:57:39;3.70;99.90
16829;DHT22;8531;48.078;11.968;2023-03-01T11:00:21;4.00;99.90
16829;DHT22;8531;48.078;11.968;2023-03-01T11:03:04;3.80;99.90
16829;DHT22;8531;48.078;11.968;2023-03-01T11:05:35;3.60;99.90
16829;DHT22;8531;48.078;11.968;2023-03-01T11:08:02;3.50;99.90
16829;DHT22;8531;48.078;11.968;2023-03-01T11:10:31;3.80;99.90
16829;DHT22;8531;48.078;11.968;2023-03-01T11:13:16;4.10;99.90
16829;DHT22;8531;48.078;11.968;2023-03-01T11:15:43;4.20;99.90
16829;DHT22;8531;48.078;11.968;2023-03-01T11:18:22;4.10;99.90
16829;DHT22;8531;48.078;11.968;2023-03-01T11:20:49;4.20;99.90
16829;DHT22;8531;48.078;11.968;2023-03-01T11:23:17;4.60;99.90
16829;DHT22;8531;48.078;11.968;2023-03-01T11:25:58;4.60;99.90
16829;DHT22;8531;48.078;11.968;2023-03-01T11:28:26;4.70;99.90
16829;DHT22;8531;48.078;11.968;2023-03-01T11:36:41;5.20;99.90
16829;DHT22;8531;48.078;11.968;2023-03-01T11:39:33;5.40;99.90
16829;DHT22;8531;48.078;11.968;2023-03-01T11:45:11;5.30;99.90
16829;DHT22;8531;48.078;11.968;2023-03-01T11:47:57;5.60;99.90
16829;DHT22;8531;48.078;11.968;2023-03-01T11:50:44;5.80;99.90
16829;DHT22;8531;48.078;11.968;2023-03-01T11:56:09;6.40;99.90
16829;DHT22;8531;48.078;11.968;2023-03-01T11:58:59;6.50;99.90
16829;DHT22;8531;48.078;11.968;2023-03-01T12:07:19;6.70;99.90
16829;DHT22;8531;48.078;11.968;2023-03-01T12:12:32;7.00;99.90
16829;DHT22;8531;48.078;11.968;2023-03-01T12:15:37;7.20;99.90
16829;DHT22;8531;48.078;11.968;2023-03-01T12:24:07;6.70;99.90
16829;DHT22;8531;48.078;11.968;2023-03-01T12:29:31;6.40;99.90
16829;DHT22;8531;48.078;11.968;2023-03-01T12:32:24;6.60;99.90
16829;DHT22;8531;48.078;11.968;2023-03-01T12:43:22;7.10;99.90
16829;DHT22;8531;48.078;11.968;2023-03-01T12:51:23;7.50;99.90
16829;DHT22;8531;48.078;11.968;2023-03-01T12:53:52;7.30;99.90
16829;DHT22;8531;48.078;11.968;2023-03-01T12:56:25;7.30;99.90
16829;DHT22;8531;48.078;11.968;2023-03-01T12:58:56;7.40;99.90
16829;DHT22;8531;48.078;11.968;2023-03-01T13:06:48;7.00;99.90
16829;DHT22;8531;48.078;11.968;2023-03-01T13:12:02;6.90;99.90
16829;DHT22;8531;48.078;11.968;2023-03-01T13:14:45;6.50;99.90
16829;DHT22;8531;48.078;11.968;2023-03-01T13:17:32;6.50;99.90
16829;DHT22;8531;48.078;11.968;2023-03-01T13:19:59;6.90;99.90
16829;DHT22;8531;48.078;11.968;2023-03-01T13:22:32;6.90;99.90
16829;DHT22;8531;48.078;11.968;2023-03-01T13:25:14;6.90;99.90
16829;DHT22;8531;48.078;11.968;2023-03-01T13:27:40;6.70;99.90
16829;DHT22;8531;48.078;11.968;2023-03-01T13:35:57;7.00;99.90
16829;DHT22;8531;48.078;11.968;2023-03-01T13:41:12;7.10;99.90
16829;DHT22;8531;48.078;11.968;2023-03-01T13:43:41;7.00;99.90
16829;DHT22;8531;48.078;11.968;2023-03-01T13:46:31;7.00;99.90
16829;DHT22;8531;48.078;11.968;2023-03-01T13:48:57;7.10;99.90
16829;DHT22;8531;48.078;11.968;2023-03-01T13:51:27;7.10;99.90
16829;DHT22;8531;48.078;11.968;2023-03-01T13:53:54;7.30;99.90
16829;DHT22;8531;48.078;11.968;2023-03-01T13:56:29;7.40;99.90
16829;DHT22;8531;48.078;11.968;2023-03-01T13:59:02;7.60;99.90
16829;DHT22;8531;48.078;11.968;2023-03-01T14:01:32;7.50;99.90
16829;DHT22;8531;48.078;11.968;2023-03-01T14:04:00;7.70;99.90
16829;DHT22;8531;48.078;11.968;2023-03-01T14:06:31;7.60;99.90
16829;DHT22;8531;48.078;11.968;2023-03-01T14:09:05;7.70;99.90
16829;DHT22;8531;48.078;11.968;2023-03-01T14:19:29;7.50;99.90
16829;DHT22;8531;48.078;11.968;2023-03-01T14:22:21;7.40;99.90
16829;DHT22;8531;48.078;11.968;2023-03-01T14:24:54;7.50;99.90
16829;DHT22;8531;48.078;11.968;2023-03-01T14:27:20;7.60;99.90
16829;DHT22;8531;48.078;11.968;2023-03-01T14:29:58;7.40;99.90
16829;DHT22;8531;48.078;11.968;2023-03-01T14:32:26;7.50;99.90
16829;DHT22;8531;48.078;11.968;2023-03-01T14:34:52;7.30;99.90
16829;DHT22;8531;48.078;11.968;2023-03-01T14:39:47;7.30;99.90
16829;DHT22;8531;48.078;11.968;2023-03-01T14:42:14;7.40;99.90
16829;DHT22;8531;48.078;11.968;2023-03-01T14:44:43;7.50;99.90
16829;DHT22;8531;48.078;11.968;2023-03-01T14:47:30;7.60;99.90
16829;DHT22;8531;48.078;11.968;2023-03-01T14:50:03;7.60;99.90
16829;DHT22;8531;48.078;11.968;2023-03-01T14:52:42;7.60;99.90
16829;DHT22;8531;48.078;11.968;2023-03-01T14:55:21;7.60;99.90
16829;DHT22;8531;48.078;11.968;2023-03-01T14:57:51;7.80;99.90
16829;DHT22;8531;48.078;11.968;2023-03-01T15:00:26;8.10;99.90
16829;DHT22;8531;48.078;11.968;2023-03-01T15:02:54;7.90;99.90
16829;DHT22;8531;48.078;11.968;2023-03-01T15:05:29;8.00;99.90
16829;DHT22;8531;48.078;11.968;2023-03-01T15:07:58;8.20;99.90
16829;DHT22;8531;48.078;11.968;2023-03-01T15:10:27;8.00;99.90
16829;DHT22;8531;48.078;11.968;2023-03-01T15:12:54;8.10;99.90
16829;DHT22;8531;48.078;11.968;2023-03-01T15:15:41;8.10;99.90
16829;DHT22;8531;48.078;11.968;2023-03-01T15:18:19;8.10;99.90
16829;DHT22;8531;48.078;11.968;2023-03-01T15:20:47;7.90;99.90
16829;DHT22;8531;48.078;11.968;2023-03-01T15:23:27;7.80;99.90
16829;DHT22;8531;48.078;11.968;2023-03-01T15:25:54;7.70;99.90
16829;DHT22;8531;48.078;11.968;2023-03-01T15:28:24;7.40;99.90
16829;DHT22;8531;48.078;11.968;2023-03-01T15:31:18;7.30;99.90
16829;DHT22;8531;48.078;11.968;2023-03-01T15:33:44;7.30;99.90
16829;DHT22;8531;48.078;11.968;2023-03-01T15:38:58;7.30;99.90
16829;DHT22;8531;48.078;11.968;2023-03-01T15:41:37;7.20;99.90
16829;DHT22;8531;48.078;11.968;2023-03-01T15:44:27;7.20;99.90
16829;DHT22;8531;48.078;11.968;2023-03-01T15:46:54;7.30;99.90
16829;DHT22;8531;48.078;11.968;2023-03-01T15:51:55;7.20;99.90
16829;DHT22;8531;48.078;11.968;2023-03-01T15:54:24;7.30;99.90
16829;DHT22;8531;48.078;11.968;2023-03-01T15:56:50;7.50;99.90
16829;DHT22;8531;48.078;11.968;2023-03-01T15:59:17;7.70;99.90
16829;DHT22;8531;48.078;11.968;2023-03-01T16:01:44;7.80;99.90
16829;DHT22;8531;48.078;11.968;2023-03-01T16:04:11;7.60;99.90
16829;DHT22;8531;48.078;11.968;2023-03-01T16:06:46;7.50;99.90
16829;DHT22;8531;48.078;11.968;2023-03-01T16:09:22;7.40;99.90
16829;DHT22;8531;48.078;11.968;2023-03-01T16:11:49;7.30;99.90
16829;DHT22;8531;48.078;11.968;2023-03-01T16:14:15;7.40;99.90
16829;DHT22;8531;48.078;11.968;2023-03-01T16:16:42;7.20;99.90
16829;DHT22;8531;48.078;11.968;2023-03-01T16:19:07;7.10;99.90
16829;DHT22;8531;48.078;11.968;2023-03-01T16:21:33;7.10;99.90
16829;DHT22;8531;48.078;11.968;2023-03-01T16:23:59;6.90;99.90
16829;DHT22;8531;48.078;11.968;2023-03-01T16:26:24;7.00;99.90
16829;DHT22;8531;48.078;11.968;2023-03-01T16:28:55;7.00;99.90
16829;DHT22;8531;48.078;11.968;2023-03-01T16:31:22;6.80;99.90
16829;DHT22;8531;48.078;11.968;2023-03-01T16:33:48;6.70;99.90
16829;DHT22;8531;48.078;11.968;2023-03-01T16:36:18;6.50;99.90
16829;DHT22;8531;48.078;11.968;2023-03-01T16:38:44;6.50;99.90
16829;DHT22;8531;48.078;11.968;2023-03-01T16:41:13;6.50;99.90
16829;DHT22;8531;48.078;11.968;2023-03-01T16:43:40;6.40;99.90
16829;DHT22;8531;48.078;11.968;2023-03-01T16:46:24;6.40;99.90
16829;DHT22;8531;48.078;11.968;2023-03-01T16:48:51;6.40;99.90
16829;DHT22;8531;48.078;11.968;2023-03-01T16:51:18;6.40;99.90
16829;DHT22;8531;48.078;11.968;2023-03-01T16:53:44;6.30;99.90
16829;DHT22;8531;48.078;11.968;2023-03-01T16:56:11;6.10;99.90
16829;DHT22;8531;48.078;11.968;2023-03-01T16:58:38;5.90;99.90
16829;DHT22;8531;48.078;11.968;2023-03-01T17:01:09;5.60;99.90
16829;DHT22;8531;48.078;11.968;2023-03-01T17:03:36;5.60;99.90
16829;DHT22;8531;48.078;11.968;2023-03-01T17:06:04;5.60;99.90
16829;DHT22;8531;48.078;11.968;2023-03-01T17:08:31;5.50;99.90
16829;DHT22;8531;48.078;11.968;2023-03-01T17:11:17;5.50;99.90
16829;DHT22;8531;48.078;11.968;2023-03-01T17:13:43;5.50;99.90
16829;DHT22;8531;48.078;11.968;2023-03-01T17:16:12;5.20;99.90
16829;DHT22;8531;48.078;11.968;2023-03-01T17:18:38;5.00;99.90
16829;DHT22;8531;48.078;11.968;2023-03-01T17:21:04;5.00;99.90
16829;DHT22;8531;48.078;11.968;2023-03-01T17:23:31;5.00;99.90
16829;DHT22;8531;48.078;11.968;2023-03-01T17:25:57;4.80;99.90
16829;DHT22;8531;48.078;11.968;2023-03-01T17:28:25;4.80;99.90
16829;DHT22;8531;48.078;11.968;2023-03-01T17:30:52;4.60;99.90
16829;DHT22;8531;48.078;11.968;2023-03-01T17:33:18;4.80;99.90
16829;DHT22;8531;48.078;11.968;2023-03-01T17:35:44;4.90;99.90
16829;DHT22;8531;48.078;11.968;2023-03-01T17:38:12;4.60;99.90
16829;DHT22;8531;48.078;11.968;2023-03-01T17:40:40;4.50;99.90
16829;DHT22;8531;48.078;11.968;2023-03-01T17:43:07;4.50;99.90
16829;DHT22;8531;48.078;11.968;2023-03-01T17:45:35;4.60;99.90